Time;durP1;ratioP1;P1;durP2;ratioP2;P2;SDS_P1;SDS_P2;PMS_P1;PMS_P2;Temp;Humidity;BMP_temperature;BMP_pressure;BME280_temperature;BME280_humidity;BME280_pressure;Samples;Min_cycle;Max_cycle;Signal;HPM_P1;HPM_P2
2024/04/06 00:00:34;;;;;;;1.98;0.45;;;;;;;16.69;58.22;100064.09;4430531;32;34310;-88
2024/04/06 00:03:04;;;;;;;1.30;1.02;;;;;;;16.40;59.54;100060.63;4457577;32;33513;-88
2024/04/06 00:05:30;;;;;;;0.30;0.30;;;;;;;16.37;60.14;100058.16;4456384;32;32888;-88
2024/04/06 00:07:57;;;;;;;0.10;0.10;;;;;;;16.46;59.89;100054.06;4458153;32;33217;-88
2024/04/06 00:10:24;;;;;;;1.00;0.70;;;;;;;16.71;59.15;100050.66;4459931;32;32829;-88
2024/04/06 00:12:52;;;;;;;0.30;0.30;;;;;;;16.99;58.16;100039.91;4431532;32;34025;-89
2024/04/06 00:15:18;;;;;;;0.70;0.70;;;;;;;17.08;58.08;100051.78;4443759;32;33353;-88
2024/04/06 00:17:45;;;;;;;1.10;1.00;;;;;;;17.07;57.98;100056.28;4458030;32;34409;-88
2024/04/06 00:20:12;;;;;;;1.48;1.37;;;;;;;16.80;58.70;100058.09;4457562;32;33638;-88
2024/04/06 00:22:38;;;;;;;0.80;0.55;;;;;;;16.59;59.00;100066.50;4457875;32;33382;-88
2024/04/06 00:25:05;;;;;;;0.50;0.50;;;;;;;16.59;58.76;100076.31;4457501;32;34398;-85
2024/04/06 00:27:33;;;;;;;0.37;0.37;;;;;;;16.57;58.93;100078.25;4444592;32;33692;-86
2024/04/06 00:29:59;;;;;;;0.15;0.13;;;;;;;16.33;59.64;100077.97;4469506;32;33897;-84
2024/04/06 00:32:26;;;;;;;0.40;0.40;;;;;;;16.32;59.81;100077.09;4456814;32;32975;-84
2024/04/06 00:34:52;;;;;;;0.52;0.47;;;;;;;16.25;60.17;100082.94;4456579;32;32772;-84
2024/04/06 00:37:19;;;;;;;1.85;0.50;;;;;;;16.31;59.97;100083.38;4471285;32;34333;-84
2024/04/06 00:39:46;;;;;;;0.13;0.13;;;;;;;16.36;59.75;100077.78;4455773;32;32842;-86
2024/04/06 00:42:12;;;;;;;0.60;0.55;;;;;;;16.24;59.78;100073.25;4447791;32;32909;-86
2024/04/06 00:44:39;;;;;;;4.35;0.95;;;;;;;16.32;59.47;100069.09;4441911;32;32723;-86
2024/04/06 00:47:06;;;;;;;0.65;0.37;;;;;;;16.37;59.28;100066.16;4431224;32;33310;-85
2024/04/06 00:49:33;;;;;;;2.28;0.57;;;;;;;16.37;58.83;100050.16;4456637;32;34680;-89
2024/04/06 00:51:59;;;;;;;0.10;0.10;;;;;;;16.23;59.48;100055.50;4456357;32;33325;-92
2024/04/06 00:54:43;;;;;;;2.45;1.02;;;;;;;16.18;59.53;100070.94;4398830;32;32707;-91
2024/04/06 00:57:10;;;;;;;1.15;0.40;;;;;;;16.25;59.05;100049.16;4392397;32;32266;-91
2024/04/06 01:00:20;;;;;;;1.25;1.15;;;;;;;16.31;58.96;100055.91;4395978;32;32779;-91
2024/04/06 01:02:47;;;;;;;0.60;0.60;;;;;;;16.81;57.25;100041.16;4399604;32;32980;-87
2024/04/06 01:05:14;;;;;;;0.55;0.52;;;;;;;16.21;58.86;100034.31;4405961;32;34263;-87
2024/04/06 01:07:44;;;;;;;0.00;0.00;;;;;;;16.09;59.45;100049.28;4394007;32;33667;-87
2024/04/06 01:10:11;;;;;;;0.60;0.37;;;;;;;16.12;59.33;100045.53;4405241;32;32926;-87
2024/04/06 01:12:38;;;;;;;0.50;0.32;;;;;;;16.27;58.65;100049.91;4381026;32;34743;-86
2024/04/06 01:15:05;;;;;;;0.40;0.40;;;;;;;15.95;59.74;100046.59;4405930;32;34155;-87
2024/04/06 01:17:31;;;;;;;0.50;0.50;;;;;;;15.96;59.52;100053.63;4381060;32;34456;-87
2024/04/06 01:19:59;;;;;;;0.35;0.35;;;;;;;16.21;58.70;100055.62;4380532;32;33074;-87
2024/04/06 01:22:25;;;;;;;0.15;0.15;;;;;;;16.11;58.80;100052.69;4393514;32;32764;-87
2024/04/06 01:24:52;;;;;;;1.10;1.00;;;;;;;16.11;59.16;100058.00;4381414;32;32731;-87
2024/04/06 01:27:19;;;;;;;0.25;0.25;;;;;;;16.16;58.82;100065.72;4381464;32;34353;-87
2024/04/06 01:29:46;;;;;;;0.82;0.65;;;;;;;16.20;58.80;100064.56;4394423;32;33198;-87
2024/04/06 01:32:12;;;;;;;0.80;0.80;;;;;;;16.36;58.12;100061.78;4392837;32;32873;-87
2024/04/06 01:34:39;;;;;;;1.85;0.30;;;;;;;16.01;59.09;100067.53;4393722;32;33354;-87
2024/04/06 01:37:06;;;;;;;0.50;0.50;;;;;;;15.85;59.82;100077.37;4380436;32;33939;-87
2024/04/06 01:39:34;;;;;;;0.55;0.55;;;;;;;15.83;60.00;100071.31;4405922;32;33829;-89
2024/04/06 01:42:01;;;;;;;0.20;0.20;;;;;;;16.29;58.42;100068.47;4392990;32;33339;-90
2024/04/06 01:44:28;;;;;;;0.13;0.13;;;;;;;15.91;59.29;100063.72;4380510;32;33920;-88
2024/04/06 01:46:54;;;;;;;0.50;0.50;;;;;;;15.73;60.16;100064.84;4388253;32;33048;-87
2024/04/06 01:49:22;;;;;;;1.20;1.10;;;;;;;15.64;60.37;100065.41;4380104;32;33703;-87
2024/04/06 01:51:48;;;;;;;0.55;0.35;;;;;;;15.77;60.04;100077.03;4404676;32;33901;-87
2024/04/06 01:54:15;;;;;;;1.00;0.60;;;;;;;15.80;59.63;100082.13;4380703;32;32766;-87
2024/04/06 01:56:41;;;;;;;0.35;0.35;;;;;;;15.49;60.79;100078.66;4394503;32;34166;-87
2024/04/06 01:59:09;;;;;;;0.62;0.62;;;;;;;15.51;60.92;100073.22;4391915;32;33289;-90
2024/04/06 02:01:35;;;;;;;0.37;0.37;;;;;;;15.52;60.86;100072.25;4404704;32;33492;-89
2024/04/06 02:04:02;;;;;;;0.00;0.00;;;;;;;15.30;61.40;100072.69;4392311;32;34274;-88
2024/04/06 02:06:29;;;;;;;0.75;0.40;;;;;;;15.36;61.43;100072.31;4405104;32;33724;-87
2024/04/06 02:08:55;;;;;;;0.13;0.13;;;;;;;15.33;61.38;100077.81;4392402;32;33425;-87
2024/04/06 02:11:23;;;;;;;0.95;0.90;;;;;;;15.50;60.59;100066.19;4379267;32;33163;-87
2024/04/06 02:13:49;;;;;;;0.45;0.45;;;;;;;15.30;61.01;100062.06;4379229;32;34553;-86
2024/04/06 02:16:16;;;;;;;0.95;0.70;;;;;;;15.38;60.86;100057.13;4379938;32;32566;-86
2024/04/06 02:18:44;;;;;;;0.75;0.37;;;;;;;15.41;60.90;100050.78;4392459;32;33507;-86
2024/04/06 02:21:16;;;;;;;0.98;0.85;;;;;;;15.42;60.74;100060.47;4405497;32;34751;-86
2024/04/06 02:23:43;;;;;;;0.37;0.37;;;;;;;15.24;61.25;100062.41;4391218;32;34134;-86
2024/04/06 02:26:10;;;;;;;0.25;0.25;;;;;;;15.33;61.41;100069.84;4404640;32;33868;-87
2024/04/06 02:28:36;;;;;;;0.73;0.73;;;;;;;15.49;60.63;100068.00;4384273;32;32744;-88
2024/04/06 02:31:03;;;;;;;0.20;0.20;;;;;;;15.82;59.49;100075.78;4392501;32;32917;-85
2024/04/06 02:33:30;;;;;;;0.55;0.55;;;;;;;15.41;60.69;100064.94;4392656;32;33645;-86
2024/04/06 02:35:56;;;;;;;0.30;0.20;;;;;;;15.36;61.12;100061.69;4379298;32;32269;-86
2024/04/06 02:38:23;;;;;;;1.00;0.73;;;;;;;15.42;61.04;100058.66;4399312;32;35066;-86
2024/04/06 02:40:50;;;;;;;0.55;0.55;;;;;;;15.44;61.04;100063.91;4379354;32;32443;-86
2024/04/06 02:43:16;;;;;;;0.45;0.20;;;;;;;15.35;61.45;100057.31;4404403;32;34209;-85
2024/04/06 02:45:43;;;;;;;0.15;0.15;;;;;;;15.43;61.08;100057.72;4404073;32;33689;-86
2024/04/06 02:48:10;;;;;;;0.13;0.13;;;;;;;15.46;60.78;100051.34;4391435;32;33873;-86
2024/04/06 02:50:37;;;;;;;0.43;0.43;;;;;;;15.33;61.35;100045.88;4391752;32;33851;-86
2024/04/06 02:53:04;;;;;;;0.17;0.17;;;;;;;15.29;61.74;100039.06;4391586;32;33278;-85
2024/04/06 02:55:30;;;;;;;0.10;0.10;;;;;;;15.41;61.43;100038.31;4379387;32;32269;-85
2024/04/06 02:57:57;;;;;;;0.45;0.45;;;;;;;15.44;61.57;100038.16;4407302;32;121256;-85
2024/04/06 03:00:25;;;;;;;0.30;0.30;;;;;;;15.88;59.65;100035.47;4405281;32;35194;-86
2024/04/06 03:02:51;;;;;;;0.43;0.43;;;;;;;15.61;60.40;100043.28;4398412;32;34241;-86
2024/04/06 03:05:18;;;;;;;0.28;0.10;;;;;;;15.45;61.13;100033.69;4405142;32;32913;-86
2024/04/06 03:07:45;;;;;;;0.10;0.10;;;;;;;15.40;61.46;100033.94;4391536;32;33540;-86
2024/04/06 03:10:12;;;;;;;0.10;0.10;;;;;;;15.28;61.88;100032.00;4392898;32;32686;-87
2024/04/06 03:12:38;;;;;;;0.22;0.22;;;;;;;15.21;62.34;100042.16;4392478;32;32864;-87
2024/04/06 03:15:05;;;;;;;0.08;0.08;;;;;;;15.12;62.94;100048.03;4366890;32;33352;-87
2024/04/06 03:17:32;;;;;;;1.08;0.08;;;;;;;15.32;62.13;100044.19;4379305;32;33143;-88
2024/04/06 03:19:58;;;;;;;0.08;0.08;;;;;;;15.30;62.26;100046.94;4392731;32;32781;-87
2024/04/06 03:22:26;;;;;;;0.52;0.20;;;;;;;15.34;62.24;100053.81;4391394;32;33215;-88
2024/04/06 03:24:53;;;;;;;1.45;0.20;;;;;;;15.40;61.84;100047.25;4404930;32;32408;-86
2024/04/06 03:27:19;;;;;;;0.20;0.05;;;;;;;15.37;61.92;100050.09;4404840;32;34596;-86
2024/04/06 03:29:46;;;;;;;0.30;0.30;;;;;;;15.75;60.43;100052.28;4367047;32;34786;-86
2024/04/06 03:32:14;;;;;;;0.20;0.20;;;;;;;15.31;61.50;100042.47;4402672;32;34069;-86
2024/04/06 03:34:41;;;;;;;0.25;0.25;;;;;;;15.21;62.26;100051.97;4378628;32;33064;-86
2024/04/06 03:37:08;;;;;;;0.00;0.00;;;;;;;15.42;61.60;100042.69;4380190;32;34175;-85
2024/04/06 03:39:34;;;;;;;0.35;0.20;;;;;;;15.37;61.82;100052.75;4391084;32;33670;-87
2024/04/06 03:42:01;;;;;;;1.00;0.47;;;;;;;15.52;61.25;100037.66;4404313;32;34195;-89
2024/04/06 03:44:28;;;;;;;1.05;0.40;;;;;;;15.45;61.36;100045.16;4367998;32;34063;-89
2024/04/06 03:46:54;;;;;;;1.08;0.68;;;;;;;15.40;61.71;100049.91;4380060;32;32838;-91
2024/04/06 03:49:21;;;;;;;0.32;0.32;;;;;;;15.57;61.02;100055.09;4380765;32;33392;-91
2024/04/06 03:51:52;;;;;;;0.25;0.25;;;;;;;15.44;61.16;100056.78;4379357;32;34276;-86
2024/04/06 03:54:18;;;;;;;0.45;0.45;;;;;;;15.17;62.35;100063.72;4404519;32;34251;-86
2024/04/06 03:56:45;;;;;;;0.08;0.08;;;;;;;15.22;62.42;100069.62;4378618;32;33357;-86
2024/04/06 03:59:13;;;;;;;1.23;0.65;;;;;;;15.33;62.17;100075.16;4362963;32;35593;-86
2024/04/06 04:01:40;;;;;;;4.62;1.45;;;;;;;15.35;61.72;100059.97;4398494;32;34135;-88
2024/04/06 04:04:07;;;;;;;0.28;0.28;;;;;;;15.19;62.30;100064.47;4383909;32;34037;-87
2024/04/06 04:06:33;;;;;;;2.08;1.65;;;;;;;15.17;62.44;100069.03;4376316;32;33070;-85
2024/04/06 04:09:00;;;;;;;1.25;0.65;;;;;;;15.33;61.88;100070.72;4397154;32;34407;-85
2024/04/06 04:11:26;;;;;;;0.20;0.20;;;;;;;15.22;62.07;100069.62;4385922;32;35540;-86
2024/04/06 04:13:53;;;;;;;1.10;0.60;;;;;;;15.29;62.15;100076.31;4383934;32;33317;-86
2024/04/06 04:16:20;;;;;;;0.20;0.20;;;;;;;15.30;61.78;100078.03;4397002;32;32994;-87
2024/04/06 04:18:47;;;;;;;0.73;0.60;;;;;;;15.55;60.97;100080.94;4378352;32;34749;-87
2024/04/06 04:21:13;;;;;;;0.45;0.45;;;;;;;15.48;60.72;100086.72;4394908;32;33336;-88
2024/04/06 04:23:40;;;;;;;0.00;0.00;;;;;;;15.36;61.46;100096.28;4394223;32;33668;-88
2024/04/06 04:26:07;;;;;;;0.10;0.10;;;;;;;15.29;61.82;100105.56;4372533;32;34029;-88
2024/04/06 04:28:33;;;;;;;0.00;0.00;;;;;;;15.36;61.51;100106.91;4385637;32;32710;-88
2024/04/06 04:31:12;;;;;;;0.00;0.00;;;;;;;15.28;62.11;100098.53;4391149;32;33332;-87
2024/04/06 04:33:40;;;;;;;0.32;0.25;;;;;;;15.44;61.65;100086.03;4365557;32;34269;-88
2024/04/06 04:36:08;;;;;;;0.65;0.65;;;;;;;15.36;61.80;100082.97;4403948;32;32446;-86
2024/04/06 04:38:34;;;;;;;0.50;0.20;;;;;;;15.37;61.80;100082.88;4393404;32;33594;-86
2024/04/06 04:41:03;;;;;;;0.22;0.22;;;;;;;15.38;61.83;100091.72;4397162;32;33700;-86
2024/04/06 04:43:30;;;;;;;2.35;0.52;;;;;;;15.76;60.53;100088.59;4382317;32;32428;-86
2024/04/06 04:45:56;;;;;;;0.40;0.28;;;;;;;15.53;61.04;100101.47;4383994;32;33098;-86
2024/04/06 04:48:23;;;;;;;0.45;0.45;;;;;;;15.71;60.77;100094.19;4376464;32;34778;-87
2024/04/06 04:50:50;;;;;;;0.25;0.25;;;;;;;15.78;60.62;100102.69;4399301;32;32976;-87
2024/04/06 04:53:17;;;;;;;0.43;0.43;;;;;;;15.76;60.92;100107.22;4397080;32;32378;-86
2024/04/06 04:55:44;;;;;;;1.65;0.55;;;;;;;15.68;61.06;100102.38;4392327;32;33680;-86
2024/04/06 04:58:11;;;;;;;0.47;0.47;;;;;;;15.26;62.50;100109.25;4389472;32;33406;-86
2024/04/06 05:00:37;;;;;;;0.30;0.30;;;;;;;15.45;62.26;100113.50;4380902;32;34329;-86
2024/04/06 05:03:04;;;;;;;0.98;0.43;;;;;;;15.40;62.25;100113.78;4407534;32;32260;-86
2024/04/06 05:05:31;;;;;;;0.20;0.10;;;;;;;15.32;62.79;100121.34;4392956;32;32530;-86
2024/04/06 05:07:57;;;;;;;1.33;1.05;;;;;;;15.76;61.48;100125.88;4393611;32;33974;-86
2024/04/06 05:10:25;;;;;;;1.15;0.77;;;;;;;15.74;61.37;100133.09;4405080;32;33273;-86
2024/04/06 05:12:51;;;;;;;0.40;0.40;;;;;;;15.84;61.06;100139.59;4407638;32;32747;-86
2024/04/06 05:15:18;;;;;;;0.10;0.10;;;;;;;15.94;60.83;100143.41;4393150;32;33184;-85
2024/04/06 05:17:44;;;;;;;0.85;0.85;;;;;;;15.77;61.42;100151.56;4392281;32;33531;-85
2024/04/06 05:20:11;;;;;;;0.70;0.15;;;;;;;15.64;62.09;100151.44;4392617;32;32892;-86
2024/04/06 05:22:38;;;;;;;0.95;0.45;;;;;;;15.64;62.32;100145.25;4404622;32;32599;-85
2024/04/06 05:25:05;;;;;;;0.30;0.30;;;;;;;15.62;62.69;100143.50;4406025;32;33632;-86
2024/04/06 05:27:32;;;;;;;0.30;0.30;;;;;;;15.72;62.55;100143.00;4392888;32;32579;-86
2024/04/06 05:29:58;;;;;;;2.55;1.58;;;;;;;15.76;62.70;100139.19;4405816;32;34831;-86
2024/04/06 05:32:26;;;;;;;0.45;0.45;;;;;;;15.84;62.51;100128.94;4405142;32;32009;-87
2024/04/06 05:34:54;;;;;;;0.37;0.28;;;;;;;15.94;62.41;100122.09;4405574;32;32953;-88
2024/04/06 05:37:20;;;;;;;2.03;1.05;;;;;;;16.07;62.00;100138.19;4381127;32;34508;-88
2024/04/06 05:39:47;;;;;;;0.25;0.25;;;;;;;16.22;61.33;100141.72;4392526;32;33127;-88
2024/04/06 05:42:13;;;;;;;0.00;0.00;;;;;;;16.20;61.49;100138.31;4392417;32;33563;-87
2024/04/06 05:44:40;;;;;;;0.90;0.62;;;;;;;16.26;61.37;100144.09;4394445;32;33396;-88
2024/04/06 05:47:07;;;;;;;0.10;0.08;;;;;;;16.40;60.90;100148.59;4380496;32;34514;-88
2024/04/06 05:49:34;;;;;;;0.30;0.25;;;;;;;16.48;60.57;100142.78;4390789;32;32635;-88
2024/04/06 05:52:00;;;;;;;1.55;0.65;;;;;;;16.59;60.16;100135.81;4405524;32;33148;-86
2024/04/06 05:54:27;;;;;;;0.30;0.30;;;;;;;16.45;60.19;100138.50;4380057;32;33673;-86
2024/04/06 05:56:54;;;;;;;0.10;0.10;;;;;;;16.52;60.64;100133.62;4392062;32;34800;-87
2024/04/06 05:59:20;;;;;;;2.58;0.30;;;;;;;16.78;59.91;100138.19;4388910;32;34083;-86
2024/04/06 06:01:47;;;;;;;1.50;1.17;;;;;;;16.60;60.40;100139.34;4377524;32;34688;-85
2024/04/06 06:04:14;;;;;;;0.20;0.20;;;;;;;16.63;60.31;100137.34;4390482;32;34543;-87
2024/04/06 06:06:41;;;;;;;0.15;0.15;;;;;;;16.78;59.84;100140.88;4390293;32;33935;-86
2024/04/06 06:09:07;;;;;;;0.70;0.57;;;;;;;17.02;59.29;100146.44;4391290;32;32947;-86
2024/04/06 06:11:34;;;;;;;0.20;0.20;;;;;;;16.98;59.54;100146.72;4378440;32;33788;-86
2024/04/06 06:14:01;;;;;;;0.30;0.30;;;;;;;17.37;58.35;100146.78;4390678;32;34337;-85
2024/04/06 06:16:29;;;;;;;0.73;0.73;;;;;;;17.33;58.25;100152.44;4389952;32;33897;-89
2024/04/06 06:18:56;;;;;;;0.20;0.20;;;;;;;17.41;58.32;100150.09;4390297;32;32752;-90
2024/04/06 06:21:23;;;;;;;0.37;0.37;;;;;;;17.59;57.98;100138.19;4389973;32;33487;-89
2024/04/06 06:23:49;;;;;;;3.55;1.48;;;;;;;17.69;56.76;100142.91;4397308;32;32358;-89
2024/04/06 06:26:16;;;;;;;0.95;0.95;;;;;;;17.41;57.43;100150.97;4375531;32;33078;-88
2024/04/06 06:28:43;;;;;;;0.15;0.15;;;;;;;17.62;56.93;100146.03;4388558;32;32952;-89
2024/04/06 06:31:09;;;;;;;0.73;0.40;;;;;;;17.93;56.78;100151.97;4387682;32;32659;-87
2024/04/06 06:33:36;;;;;;;2.62;1.50;;;;;;;17.86;56.91;100146.19;4389700;32;33522;-86
2024/04/06 06:36:03;;;;;;;0.10;0.10;;;;;;;17.83;56.93;100145.53;4377491;32;33842;-84
2024/04/06 06:38:30;;;;;;;1.05;0.65;;;;;;;18.14;56.06;100144.31;4377700;32;32670;-84
2024/04/06 06:40:56;;;;;;;1.15;1.05;;;;;;;18.49;55.56;100144.47;4376570;32;33266;-83
2024/04/06 06:43:23;;;;;;;0.45;0.45;;;;;;;18.60;55.24;100149.91;4378826;32;33630;-83
2024/04/06 06:45:49;;;;;;;0.40;0.40;;;;;;;18.82;55.09;100151.94;4389801;32;34846;-84
2024/04/06 06:48:16;;;;;;;1.12;1.02;;;;;;;18.78;55.76;100144.25;4393515;32;32636;-84
2024/04/06 06:50:44;;;;;;;0.10;0.10;;;;;;;18.84;55.09;100149.16;4378479;32;33226;-84
2024/04/06 06:53:11;;;;;;;3.50;0.35;;;;;;;18.91;55.40;100153.09;4377318;32;33596;-83
2024/04/06 06:55:38;;;;;;;0.17;0.17;;;;;;;19.07;55.03;100159.03;4388918;32;32830;-83
2024/04/06 06:58:06;;;;;;;0.30;0.30;;;;;;;18.62;53.49;100163.19;4399676;32;33748;-83
2024/04/06 07:00:32;;;;;;;0.35;0.35;;;;;;;19.02;53.47;100169.22;4377508;32;33252;-84
2024/04/06 07:02:59;;;;;;;0.05;0.03;;;;;;;19.31;52.84;100168.91;4376993;32;32766;-83
2024/04/06 07:05:26;;;;;;;0.47;0.47;;;;;;;19.53;53.00;100177.06;4402474;32;32958;-84
2024/04/06 07:07:54;;;;;;;0.62;0.62;;;;;;;19.63;52.50;100180.78;4398659;32;34066;-83
2024/04/06 07:10:21;;;;;;;0.40;0.40;;;;;;;19.66;53.04;100185.91;4377520;32;32155;-83
2024/04/06 07:12:48;;;;;;;0.37;0.37;;;;;;;19.77;51.28;100176.19;4376150;32;32703;-83
2024/04/06 07:15:16;;;;;;;0.43;0.10;;;;;;;19.61;52.41;100185.41;4376117;32;32163;-83
2024/04/06 07:17:44;;;;;;;5.00;1.58;;;;;;;19.72;51.56;100186.41;4387959;32;34171;-83
2024/04/06 07:20:11;;;;;;;0.20;0.20;;;;;;;19.51;51.92;100192.34;4376188;32;32620;-83
2024/04/06 07:22:39;;;;;;;0.15;0.15;;;;;;;19.66;51.70;100191.28;4387335;32;33548;-83
2024/04/06 07:25:06;;;;;;;0.28;0.28;;;;;;;20.04;50.40;100195.53;4388946;32;34386;-83
2024/04/06 07:27:33;;;;;;;0.60;0.60;;;;;;;20.02;50.83;100186.75;4376260;32;34946;-83
2024/04/06 07:29:59;;;;;;;0.40;0.32;;;;;;;20.29;50.58;100188.28;4389098;32;33962;-83
2024/04/06 07:32:26;;;;;;;0.60;0.60;;;;;;;20.42;49.57;100189.87;4376391;32;32462;-82
2024/04/06 07:34:53;;;;;;;1.00;0.85;;;;;;;20.63;48.93;100184.66;4382698;32;33831;-82
2024/04/06 07:37:19;;;;;;;1.15;0.77;;;;;;;20.66;49.89;100187.13;4399301;32;33844;-83
2024/04/06 07:39:46;;;;;;;0.50;0.50;;;;;;;20.74;49.01;100194.53;4384187;32;32920;-83
2024/04/06 07:42:13;;;;;;;0.30;0.30;;;;;;;20.96;48.60;100193.69;4388254;32;34389;-83
2024/04/06 07:44:39;;;;;;;0.98;0.50;;;;;;;20.86;49.39;100192.72;4374784;32;32486;-81
2024/04/06 07:47:06;;;;;;;2.20;1.23;;;;;;;21.00;50.02;100203.19;4389145;32;34133;-81
2024/04/06 07:49:32;;;;;;;1.95;0.95;;;;;;;20.88;50.44;100205.03;4376470;32;32920;-81
2024/04/06 07:51:59;;;;;;;1.15;0.43;;;;;;;20.91;50.22;100201.25;4389036;32;32905;-81
2024/04/06 07:54:26;;;;;;;0.73;0.68;;;;;;;21.08;48.97;100197.19;4385855;32;34036;-82
2024/04/06 07:56:52;;;;;;;0.50;0.50;;;;;;;21.22;47.83;100191.56;4387736;32;34850;-82
2024/04/06 07:59:19;;;;;;;2.62;0.68;;;;;;;21.23;47.18;100190.59;4402755;32;33551;-81
2024/04/06 08:01:46;;;;;;;0.22;0.22;;;;;;;21.55;46.00;100195.16;4401549;32;33970;-81
2024/04/06 08:04:13;;;;;;;0.20;0.10;;;;;;;21.75;45.87;100201.59;4402306;32;34440;-81
2024/04/06 08:06:39;;;;;;;0.03;0.03;;;;;;;21.96;46.16;100189.00;4397541;32;32840;-81
2024/04/06 08:09:05;;;;;;;0.20;0.20;;;;;;;21.86;45.20;100182.69;4389140;32;34336;-82
2024/04/06 08:11:32;;;;;;;0.43;0.43;;;;;;;21.99;44.00;100188.75;4387618;32;33974;-81
2024/04/06 08:13:59;;;;;;;0.30;0.30;;;;;;;22.26;43.40;100192.75;4397128;32;32818;-82
2024/04/06 08:16:25;;;;;;;0.20;0.20;;;;;;;22.20;43.71;100195.00;4408067;32;32144;-81
2024/04/06 08:18:52;;;;;;;0.40;0.40;;;;;;;22.32;44.22;100184.19;4393012;32;32092;-82
2024/04/06 08:21:18;;;;;;;6.68;0.80;;;;;;;22.59;43.14;100192.50;4379271;32;32850;-81
2024/04/06 08:23:45;;;;;;;0.28;0.25;;;;;;;22.78;42.61;100190.91;4392382;32;34308;-81
2024/04/06 08:26:12;;;;;;;0.30;0.30;;;;;;;22.87;41.76;100195.47;4389735;32;34090;-80
2024/04/06 08:28:38;;;;;;;0.10;0.10;;;;;;;22.70;43.09;100186.22;4392597;32;34204;-80
2024/04/06 08:31:05;;;;;;;0.30;0.30;;;;;;;22.77;43.59;100189.19;4405748;32;32116;-80
2024/04/06 08:33:31;;;;;;;0.30;0.30;;;;;;;22.67;42.87;100190.00;4404155;32;34131;-80
2024/04/06 08:35:59;;;;;;;0.80;0.80;;;;;;;22.79;41.48;100188.09;4399313;32;34769;-80
2024/04/06 08:38:25;;;;;;;0.55;0.55;;;;;;;23.20;41.33;100181.69;4402452;32;33600;-80
2024/04/06 08:40:52;;;;;;;4.18;0.90;;;;;;;23.39;41.51;100178.19;4400873;32;33889;-80
2024/04/06 08:43:19;;;;;;;2.55;0.93;;;;;;;23.27;41.41;100175.78;4380047;32;33815;-80
2024/04/06 08:45:46;;;;;;;0.10;0.10;;;;;;;23.31;40.06;100172.66;4394257;32;32724;-80
2024/04/06 08:48:14;;;;;;;2.22;1.17;;;;;;;23.72;41.27;100173.41;4398541;32;32862;-80
2024/04/06 08:50:42;;;;;;;0.10;0.10;;;;;;;23.73;40.19;100170.56;4403161;32;32941;-80
2024/04/06 08:53:09;;;;;;;0.95;0.95;;;;;;;24.22;39.01;100165.13;4399822;32;33655;-80
2024/04/06 08:55:36;;;;;;;0.00;0.00;;;;;;;24.22;38.57;100162.44;4401255;32;33762;-80
2024/04/06 08:58:03;;;;;;;1.25;0.20;;;;;;;24.16;38.94;100166.53;4384300;32;32558;-80
2024/04/06 09:00:29;;;;;;;0.75;0.75;;;;;;;24.02;38.35;100161.59;4377777;32;34075;-81
2024/04/06 09:02:56;;;;;;;0.00;0.00;;;;;;;24.64;38.08;100157.50;4379903;32;33821;-80
2024/04/06 09:05:23;;;;;;;0.30;0.30;;;;;;;24.46;37.75;100164.66;4385890;32;33291;-80
2024/04/06 09:07:51;;;;;;;0.30;0.20;;;;;;;24.90;38.29;100163.03;4391761;32;34295;-80
2024/04/06 09:10:24;;;;;;;0.10;0.10;;;;;;;25.06;36.45;100154.28;4378511;32;34174;-80
2024/04/06 09:12:50;;;;;;;0.00;0.00;;;;;;;25.15;36.21;100156.09;4380088;32;34612;-80
2024/04/06 09:15:17;;;;;;;0.60;0.52;;;;;;;25.41;36.37;100149.97;4390581;32;35042;-80
2024/04/06 09:17:44;;;;;;;0.30;0.30;;;;;;;25.59;36.11;100153.53;4378863;32;33656;-80
2024/04/06 09:20:12;;;;;;;0.43;0.43;;;;;;;25.45;36.39;100143.25;4378881;32;33370;-80
2024/04/06 09:22:41;;;;;;;0.35;0.28;;;;;;;26.05;35.11;100146.97;4391856;32;34616;-80
2024/04/06 09:25:08;;;;;;;0.10;0.10;;;;;;;26.32;34.67;100139.72;4392038;32;34200;-80
2024/04/06 09:27:35;;;;;;;0.10;0.10;;;;;;;26.12;35.01;100144.50;4392329;32;33739;-80
2024/04/06 09:30:01;;;;;;;0.00;0.00;;;;;;;25.81;35.08;100140.53;4390844;32;34715;-80
2024/04/06 09:32:29;;;;;;;3.40;0.32;;;;;;;25.72;34.32;100142.28;4392978;32;34553;-80
2024/04/06 09:34:58;;;;;;;0.00;0.00;;;;;;;25.94;34.94;100138.28;4378549;32;33855;-80
2024/04/06 09:37:33;;;;;;;0.10;0.10;;;;;;;26.20;35.09;100136.41;4390782;32;33808;-80
2024/04/06 09:40:00;;;;;;;0.03;0.00;;;;;;;26.63;35.29;100136.50;4390008;32;32346;-80
2024/04/06 09:42:28;;;;;;;0.10;0.10;;;;;;;26.76;33.21;100137.75;4383891;32;33916;-80
2024/04/06 09:44:55;;;;;;;0.00;0.00;;;;;;;26.71;32.76;100134.69;4380572;32;32216;-80
2024/04/06 09:47:24;;;;;;;1.75;0.20;;;;;;;26.08;33.71;100134.16;4365699;32;34334;-80
2024/04/06 09:49:51;;;;;;;3.90;0.43;;;;;;;26.49;34.18;100140.66;4391234;32;33711;-80
2024/04/06 09:52:19;;;;;;;1.00;0.15;;;;;;;26.42;34.57;100140.44;4390615;32;34913;-80
2024/04/06 09:54:46;;;;;;;0.20;0.20;;;;;;;26.79;32.95;100142.00;4384738;32;33774;-80
2024/04/06 09:57:14;;;;;;;0.43;0.43;;;;;;;27.25;32.86;100129.81;4390524;32;32053;-80
2024/04/06 09:59:42;;;;;;;0.10;0.10;;;;;;;27.31;31.69;100126.44;4399333;32;33602;-81
2024/04/06 10:02:09;;;;;;;0.47;0.22;;;;;;;27.03;31.63;100133.97;4399116;32;33965;-80
2024/04/06 10:04:37;;;;;;;0.30;0.30;;;;;;;27.00;32.38;100137.00;4388386;32;33072;-80
2024/04/06 10:07:05;;;;;;;0.13;0.13;;;;;;;27.08;32.02;100141.63;4398348;32;33407;-81
2024/04/06 10:09:32;;;;;;;0.20;0.10;;;;;;;27.05;32.01;100131.09;4385854;32;32328;-80
2024/04/06 10:12:00;;;;;;;0.40;0.40;;;;;;;26.77;32.83;100134.03;4378221;32;34498;-80
2024/04/06 10:14:27;;;;;;;0.00;0.00;;;;;;;27.22;31.87;100132.84;4400367;32;33891;-80
2024/04/06 10:17:08;;;;;;;0.10;0.10;;;;;;;27.13;31.97;100133.84;4398229;32;33622;-80
2024/04/06 10:19:35;;;;;;;0.77;0.57;;;;;;;26.98;32.79;100146.31;4391835;32;34662;-80
2024/04/06 10:22:03;;;;;;;0.20;0.20;;;;;;;26.47;33.21;100148.97;4398888;32;34115;-80
2024/04/06 10:24:30;;;;;;;0.25;0.13;;;;;;;26.71;33.38;100148.22;4385564;32;32753;-80
2024/04/06 10:26:57;;;;;;;0.10;0.10;;;;;;;26.61;33.92;100154.78;4384357;32;34691;-80
2024/04/06 10:29:24;;;;;;;0.15;0.15;;;;;;;26.39;34.65;100150.75;4383628;32;36154;-80
2024/04/06 10:31:50;;;;;;;0.68;0.60;;;;;;;26.38;33.59;100154.47;4396726;32;32489;-80
2024/04/06 10:34:17;;;;;;;0.45;0.45;;;;;;;26.70;34.28;100149.25;4385265;32;33389;-80
2024/04/06 10:36:44;;;;;;;0.70;0.60;;;;;;;26.71;34.90;100153.66;4373480;32;33568;-81
2024/04/06 10:39:10;;;;;;;1.95;0.77;;;;;;;26.84;34.27;100155.06;4385666;32;32320;-81
2024/04/06 10:41:42;;;;;;;1.08;0.85;;;;;;;26.78;33.79;100146.59;4381628;32;32549;-81
2024/04/06 10:44:12;;;;;;;1.60;0.70;;;;;;;27.04;34.95;100140.22;4398206;32;34178;-81
2024/04/06 10:46:39;;;;;;;0.37;0.37;;;;;;;26.96;33.38;100145.63;4384158;32;33610;-80
2024/04/06 10:49:12;;;;;;;0.40;0.40;;;;;;;27.36;33.02;100144.06;4397277;32;34549;-81
2024/04/06 10:51:39;;;;;;;0.35;0.35;;;;;;;27.52;32.78;100134.06;4391122;32;33422;-81
2024/04/06 10:54:05;;;;;;;0.30;0.30;;;;;;;27.43;33.65;100128.81;4388880;32;34451;-80
2024/04/06 10:56:36;;;;;;;1.65;0.50;;;;;;;27.67;32.81;100126.09;4383432;32;34418;-80
2024/04/06 10:59:04;;;;;;;0.60;0.50;;;;;;;27.52;33.54;100131.38;4390096;32;32352;-80
2024/04/06 11:01:35;;;;;;;2.47;0.88;;;;;;;27.76;33.13;100114.28;4392162;32;32782;-80
2024/04/06 11:04:04;;;;;;;0.13;0.13;;;;;;;27.81;32.15;100117.31;4394169;32;32266;-80
2024/04/06 11:06:31;;;;;;;0.20;0.20;;;;;;;27.18;32.61;100122.50;4379929;32;32004;-81
2024/04/06 11:09:01;;;;;;;0.62;0.57;;;;;;;27.23;32.63;100122.84;4380562;32;32846;-80
2024/04/06 11:11:29;;;;;;;1.37;1.23;;;;;;;27.44;34.15;100123.25;4393284;32;34491;-81
2024/04/06 11:13:58;;;;;;;0.10;0.10;;;;;;;27.50;34.59;100116.28;4392847;32;33088;-80
2024/04/06 11:16:25;;;;;;;0.43;0.32;;;;;;;27.95;31.99;100120.38;4404762;32;33810;-80
2024/04/06 11:18:52;;;;;;;0.32;0.32;;;;;;;27.96;31.83;100119.34;4405082;32;33621;-80
2024/04/06 11:21:19;;;;;;;0.30;0.30;;;;;;;27.97;31.86;100110.22;4404177;32;34004;-80
2024/04/06 11:23:49;;;;;;;2.45;0.68;;;;;;;27.77;31.69;100115.13;4392252;32;33408;-80